Terminal Aerodrome Forecast
Issued by NWS

Home | Current Version | Previous Version | Text Only | Print | Product List | Glossary On
Versions: 1 2 3 4 5 6 7 8 9 10 11 12 13 14 15 16 17 18
474
FTUS46 KSTO 271122
TAFRBL
TAF
KRBL 271122Z 2712/2812 31004KT 5SM BR BKN010
      TEMPO 2712/2716 1/4SM FG BKN001
     FM271800 34007KT P6SM BKN250=

USA.gov is the U.S. government's official web portal to all federal, state and local government web resources and services.